Time;durP1;ratioP1;P1;durP2;ratioP2;P2;SDS_P1;SDS_P2;PMS_P1;PMS_P2;Temp;Humidity;BMP_temperature;BMP_pressure;BME280_temperature;BME280_humidity;BME280_pressure;Samples;Min_cycle;Max_cycle;Signal;HPM_P1;HPM_P2
2023/08/13 00:02:57;;;;;;;13.45;3.50;;;18.90;84.80;;;;;;9179938;19;20021;-69
2023/08/13 00:06:08;;;;;;;12.18;4.07;;;18.90;84.60;;;;;;9179166;19;20105;-70
2023/08/13 00:09:17;;;;;;;15.15;5.47;;;18.90;85.00;;;;;;9179379;19;20019;-69
2023/08/13 00:12:25;;;;;;;19.42;5.07;;;18.90;84.90;;;;;;9179182;19;20025;-71
2023/08/13 00:15:33;;;;;;;11.18;4.38;;;18.90;84.60;;;;;;9178892;19;20037;-69
2023/08/13 00:18:38;;;;;;;18.15;4.13;;;18.90;84.50;;;;;;9171778;19;20033;-70
2023/08/13 00:21:48;;;;;;;11.77;4.25;;;19.00;84.80;;;;;;9175238;19;20014;-70
2023/08/13 00:25:12;;;;;;;14.13;4.32;;;18.90;85.10;;;;;;9177030;19;20030;-70
2023/08/13 00:28:19;;;;;;;14.43;4.38;;;18.80;84.50;;;;;;9175205;19;20029;-69
2023/08/13 00:31:25;;;;;;;17.23;4.22;;;18.90;84.70;;;;;;9176952;19;20010;-69
2023/08/13 00:34:32;;;;;;;15.18;4.07;;;18.90;85.50;;;;;;9177861;19;20666;-69
2023/08/13 00:37:40;;;;;;;15.30;4.80;;;18.90;84.80;;;;;;9177533;19;20108;-70
2023/08/13 00:40:47;;;;;;;15.82;4.43;;;19.10;84.40;;;;;;9175347;19;20459;-70
2023/08/13 00:43:53;;;;;;;12.20;4.55;;;18.90;85.30;;;;;;9178215;19;20010;-69
2023/08/13 00:47:00;;;;;;;20.23;4.78;;;18.90;85.50;;;;;;9177379;19;20126;-69
2023/08/13 00:50:09;;;;;;;15.65;4.05;;;19.00;85.60;;;;;;9177985;19;20025;-69
2023/08/13 00:53:19;;;;;;;13.18;4.30;;;19.00;85.70;;;;;;9176187;19;20022;-69
2023/08/13 00:56:26;;;;;;;12.70;4.18;;;19.00;86.40;;;;;;9171305;19;20373;-69
2023/08/13 00:59:36;;;;;;;17.17;4.70;;;19.00;86.10;;;;;;9177282;19;20015;-69
2023/08/13 01:02:41;;;;;;;15.73;3.72;;;19.00;85.90;;;;;;9178094;19;20348;-70
2023/08/13 01:05:53;;;;;;;13.95;3.75;;;19.10;86.10;;;;;;9177531;19;20019;-69
2023/08/13 01:09:08;;;;;;;12.50;3.80;;;19.10;85.80;;;;;;9177512;19;20014;-69
2023/08/13 01:12:25;;;;;;;14.43;4.63;;;19.00;86.10;;;;;;9177214;19;20082;-70
2023/08/13 01:15:35;;;;;;;23.02;4.43;;;19.00;85.90;;;;;;9177254;19;20025;-69
2023/08/13 01:18:44;;;;;;;14.85;3.45;;;19.10;85.50;;;;;;9174397;19;20011;-69
2023/08/13 01:21:49;;;;;;;15.80;3.63;;;19.00;85.10;;;;;;9175077;19;20521;-69
2023/08/13 01:24:59;;;;;;;12.63;3.40;;;19.10;85.20;;;;;;9176372;19;20014;-69
2023/08/13 01:28:13;;;;;;;19.83;3.33;;;19.10;85.50;;;;;;9176503;19;20741;-69
2023/08/13 01:31:27;;;;;;;12.35;3.25;;;19.10;85.40;;;;;;9175174;19;20018;-69
2023/08/13 01:34:33;;;;;;;12.98;2.90;;;19.00;85.40;;;;;;9173713;19;20488;-69
2023/08/13 01:37:41;;;;;;;10.52;2.88;;;19.00;85.80;;;;;;9174895;19;20018;-68
2023/08/13 01:40:51;;;;;;;17.92;3.13;;;19.00;85.30;;;;;;9173872;19;20464;-69
2023/08/13 01:43:58;;;;;;;14.18;3.10;;;19.10;85.80;;;;;;9184905;19;20021;-70
2023/08/13 01:47:07;;;;;;;14.77;2.72;;;19.00;85.30;;;;;;9185567;19;20078;-70
2023/08/13 01:50:12;;;;;;;16.50;2.80;;;18.90;85.70;;;;;;9185640;19;20484;-70
2023/08/13 01:53:20;;;;;;;9.23;3.22;;;19.00;85.30;;;;;;9185358;19;20868;-70
2023/08/13 01:56:28;;;;;;;12.05;3.13;;;18.90;85.30;;;;;;9181253;19;20015;-69
2023/08/13 01:59:35;;;;;;;15.30;3.17;;;19.00;85.30;;;;;;9179300;19;20484;-70
2023/08/13 02:02:40;;;;;;;11.70;2.95;;;18.90;85.10;;;;;;9182953;19;20018;-69
2023/08/13 02:05:48;;;;;;;11.68;3.05;;;18.90;85.70;;;;;;9182134;19;20015;-69
2023/08/13 02:08:53;;;;;;;13.50;2.88;;;18.80;85.00;;;;;;9184023;19;20017;-69
2023/08/13 02:12:03;;;;;;;8.90;2.33;;;18.70;85.70;;;;;;9183886;19;20044;-70
2023/08/13 02:15:09;;;;;;;9.88;2.60;;;18.80;85.50;;;;;;9184312;19;20479;-70
2023/08/13 02:18:22;;;;;;;13.10;3.10;;;18.70;85.10;;;;;;9183009;19;20345;-70
2023/08/13 02:21:28;;;;;;;9.70;2.60;;;18.70;84.60;;;;;;9184129;19;20483;-70
2023/08/13 02:24:35;;;;;;;10.07;2.55;;;18.70;85.70;;;;;;9184135;19;20018;-70
2023/08/13 02:27:43;;;;;;;8.27;2.03;;;18.70;85.40;;;;;;9183992;19;20032;-70
2023/08/13 02:30:52;;;;;;;11.82;2.50;;;18.60;85.20;;;;;;9183243;19;20014;-69
2023/08/13 02:33:57;;;;;;;12.05;2.88;;;18.70;86.10;;;;;;9184151;19;20009;-69
2023/08/13 02:37:05;;;;;;;10.93;2.95;;;18.60;85.50;;;;;;9183680;19;20475;-69
2023/08/13 02:40:11;;;;;;;10.20;2.58;;;18.60;85.80;;;;;;9181055;19;20011;-69
2023/08/13 02:43:21;;;;;;;14.93;3.05;;;18.50;86.00;;;;;;9183544;19;20030;-69
2023/08/13 02:46:28;;;;;;;11.55;2.70;;;18.50;85.70;;;;;;9181093;19;20104;-70
2023/08/13 02:49:35;;;;;;;12.95;2.83;;;18.50;85.60;;;;;;9180316;19;20357;-69
2023/08/13 02:52:41;;;;;;;7.60;2.20;;;18.50;86.30;;;;;;9181859;19;20014;-69
2023/08/13 02:55:49;;;;;;;11.23;2.40;;;18.40;85.70;;;;;;9183137;19;20015;-69
2023/08/13 02:58:56;;;;;;;8.68;2.88;;;18.40;85.80;;;;;;9177025;19;20019;-69
2023/08/13 03:02:04;;;;;;;13.13;3.05;;;18.50;85.70;;;;;;9180847;19;20014;-69
2023/08/13 03:05:10;;;;;;;12.48;2.70;;;18.40;86.00;;;;;;9180195;19;20044;-69
2023/08/13 03:08:17;;;;;;;14.73;2.97;;;18.30;86.00;;;;;;9182364;19;20044;-70
2023/08/13 03:11:23;;;;;;;8.13;2.97;;;18.30;86.10;;;;;;9182449;19;20029;-69
2023/08/13 03:14:34;;;;;;;8.63;2.70;;;18.20;85.90;;;;;;9180116;19;20484;-71
2023/08/13 03:17:39;;;;;;;10.43;2.75;;;18.20;86.70;;;;;;9182271;19;20014;-70
2023/08/13 03:20:47;;;;;;;10.55;3.00;;;18.20;86.20;;;;;;9177181;19;20025;-70
2023/08/13 03:23:52;;;;;;;7.10;2.20;;;18.20;86.80;;;;;;9181766;19;20495;-70
2023/08/13 03:27:00;;;;;;;8.90;2.50;;;18.10;86.10;;;;;;9180769;19;20492;-70
2023/08/13 03:30:09;;;;;;;9.82;3.03;;;18.10;86.70;;;;;;9179661;19;20110;-70
2023/08/13 03:33:36;;;;;;;13.45;2.90;;;18.10;86.00;;;;;;9179555;19;20022;-70
2023/08/13 03:36:42;;;;;;;7.90;2.60;;;18.10;86.20;;;;;;9181258;19;20720;-69
2023/08/13 03:39:49;;;;;;;14.27;2.88;;;17.90;86.20;;;;;;9179301;19;20025;-70
2023/08/13 03:42:54;;;;;;;13.93;3.25;;;18.00;86.80;;;;;;9180905;19;20035;-69
2023/08/13 03:46:05;;;;;;;9.90;2.85;;;18.00;86.20;;;;;;9179353;19;20033;-69
2023/08/13 03:49:10;;;;;;;14.20;3.08;;;17.90;86.20;;;;;;9176722;19;20086;-68
2023/08/13 03:52:23;;;;;;;16.33;3.15;;;17.90;86.50;;;;;;9180446;19;20502;-70
2023/08/13 03:55:34;;;;;;;7.30;3.03;;;17.90;86.90;;;;;;9180547;19;20007;-70
2023/08/13 03:58:41;;;;;;;10.35;2.97;;;17.80;87.20;;;;;;9175970;19;20038;-69
2023/08/13 04:01:53;;;;;;;11.25;3.25;;;17.70;87.10;;;;;;9178300;19;20115;-68
2023/08/13 04:05:01;;;;;;;10.55;3.28;;;17.80;87.30;;;;;;9177718;19;20015;-69
2023/08/13 04:08:07;;;;;;;11.05;2.70;;;17.80;87.10;;;;;;9177992;19;20379;-69
2023/08/13 04:11:14;;;;;;;17.35;2.92;;;17.70;86.00;;;;;;9179548;19;20018;-71
2023/08/13 04:14:19;;;;;;;9.60;2.53;;;17.70;86.60;;;;;;9178151;19;20019;-69
2023/08/13 04:17:29;;;;;;;11.23;3.15;;;17.70;86.80;;;;;;9177916;19;20023;-69
2023/08/13 04:20:35;;;;;;;13.43;3.20;;;17.90;87.10;;;;;;9176226;19;20021;-70
2023/08/13 04:23:42;;;;;;;15.90;3.13;;;17.60;87.60;;;;;;9179297;19;20033;-70
2023/08/13 04:26:48;;;;;;;9.57;3.10;;;17.70;87.70;;;;;;9177739;19;20022;-69
2023/08/13 04:29:57;;;;;;;13.85;3.45;;;17.50;87.70;;;;;;9177436;19;20021;-70
2023/08/13 04:33:05;;;;;;;13.07;2.67;;;17.60;87.10;;;;;;9177510;19;20018;-70
2023/08/13 04:36:14;;;;;;;11.88;3.10;;;17.50;87.30;;;;;;9177313;19;20025;-70
2023/08/13 04:39:19;;;;;;;11.98;2.95;;;17.50;86.90;;;;;;9176197;19;20018;-69
2023/08/13 04:42:27;;;;;;;11.52;3.22;;;17.50;86.70;;;;;;9178941;19;20022;-70
2023/08/13 04:45:33;;;;;;;13.15;3.50;;;17.40;87.20;;;;;;9177084;19;20006;-71
2023/08/13 04:48:48;;;;;;;10.77;3.20;;;17.50;86.60;;;;;;9177508;19;20014;-69
2023/08/13 04:52:00;;;;;;;9.63;2.83;;;17.40;87.40;;;;;;9177950;19;20014;-69
2023/08/13 04:55:08;;;;;;;11.30;3.00;;;17.40;87.50;;;;;;9177018;19;20472;-69
2023/08/13 04:58:14;;;;;;;19.02;3.50;;;17.40;87.40;;;;;;9174161;19;20029;-69
2023/08/13 05:01:21;;;;;;;11.85;3.42;;;17.40;87.60;;;;;;9176079;19;20015;-70
2023/08/13 05:04:33;;;;;;;13.88;3.55;;;17.40;87.00;;;;;;9176995;19;20048;-70
2023/08/13 05:07:40;;;;;;;15.10;3.33;;;17.30;87.10;;;;;;9178200;19;20018;-71
2023/08/13 05:10:46;;;;;;;15.23;3.35;;;17.40;87.40;;;;;;9177803;19;20010;-71
2023/08/13 05:13:53;;;;;;;13.82;2.70;;;17.40;87.40;;;;;;9177545;19;20023;-70
2023/08/13 05:16:59;;;;;;;11.30;2.95;;;17.50;87.60;;;;;;9174497;19;20027;-70
2023/08/13 05:20:10;;;;;;;10.63;3.97;;;17.30;87.50;;;;;;9176036;19;20348;-70
2023/08/13 05:23:15;;;;;;;16.95;3.47;;;17.30;87.30;;;;;;9175280;19;20447;-70
2023/08/13 05:26:23;;;;;;;19.45;3.80;;;17.30;87.70;;;;;;9177017;19;20488;-70
2023/08/13 05:29:29;;;;;;;11.77;3.30;;;17.30;87.30;;;;;;9175161;19;20015;-71
2023/08/13 05:32:36;;;;;;;11.25;3.60;;;17.40;87.70;;;;;;9176520;19;20010;-70
2023/08/13 05:35:45;;;;;;;9.63;2.45;;;17.40;88.10;;;;;;9174761;19;20018;-70
2023/08/13 05:38:53;;;;;;;15.85;3.60;;;17.40;88.50;;;;;;9176683;19;20014;-70
2023/08/13 05:42:00;;;;;;;15.85;2.97;;;17.40;88.30;;;;;;9172773;19;20034;-70
2023/08/13 05:45:08;;;;;;;13.98;3.47;;;17.50;88.50;;;;;;9175311;19;20021;-70
2023/08/13 05:48:14;;;;;;;12.27;3.40;;;17.50;88.30;;;;;;9173575;19;20567;-70
2023/08/13 05:51:25;;;;;;;17.63;4.35;;;17.50;88.60;;;;;;9174618;19;20049;-71
2023/08/13 05:54:30;;;;;;;17.35;3.47;;;17.50;88.50;;;;;;9176392;19;20027;-70
2023/08/13 05:57:37;;;;;;;12.40;3.13;;;17.70;88.20;;;;;;9171618;19;20022;-71
2023/08/13 06:00:43;;;;;;;10.75;3.42;;;17.60;88.60;;;;;;9174517;19;20476;-70
2023/08/13 06:03:50;;;;;;;14.48;2.90;;;17.90;88.10;;;;;;9175411;19;20738;-70
2023/08/13 06:06:58;;;;;;;10.77;3.03;;;18.00;89.10;;;;;;9175633;19;20019;-70
2023/08/13 06:10:07;;;;;;;14.65;3.10;;;18.10;88.90;;;;;;9175087;19;20033;-70
2023/08/13 06:13:12;;;;;;;7.20;2.45;;;18.20;88.40;;;;;;9174976;19;20015;-70
2023/08/13 06:16:20;;;;;;;19.92;3.90;;;18.20;88.40;;;;;;9174083;19;20030;-70
2023/08/13 06:19:25;;;;;;;13.13;2.60;;;18.40;88.40;;;;;;9175289;19;20119;-71
2023/08/13 06:22:35;;;;;;;14.30;2.70;;;18.50;88.40;;;;;;9174781;19;20018;-71
2023/08/13 06:25:42;;;;;;;9.32;3.47;;;18.60;88.70;;;;;;9173550;19;20472;-70
2023/08/13 06:28:49;;;;;;;13.65;2.78;;;18.70;88.30;;;;;;9178154;19;20019;-70
2023/08/13 06:31:55;;;;;;;13.10;3.03;;;18.80;87.90;;;;;;9182840;19;20057;-69
2023/08/13 06:35:02;;;;;;;7.45;2.63;;;19.00;88.10;;;;;;9182591;19;20018;-72
2023/08/13 06:38:10;;;;;;;8.93;2.95;;;19.00;87.90;;;;;;9182864;19;20014;-72
2023/08/13 06:41:20;;;;;;;10.02;2.92;;;19.10;87.60;;;;;;9180934;19;20018;-70
2023/08/13 06:44:25;;;;;;;16.73;4.20;;;19.20;87.40;;;;;;9182329;19;20591;-70
2023/08/13 06:47:33;;;;;;;12.57;2.40;;;19.30;87.80;;;;;;9181887;19;20022;-71
2023/08/13 06:50:38;;;;;;;10.60;3.25;;;19.40;87.70;;;;;;9182585;19;20015;-71
2023/08/13 06:53:48;;;;;;;14.27;2.50;;;19.50;87.80;;;;;;9182007;19;20021;-71
2023/08/13 06:56:53;;;;;;;12.70;2.40;;;19.60;88.40;;;;;;9177965;19;20014;-70
2023/08/13 07:00:01;;;;;;;19.75;2.65;;;19.80;88.30;;;;;;9178976;19;20021;-71
2023/08/13 07:03:06;;;;;;;15.48;3.47;;;19.90;87.60;;;;;;9181190;19;20011;-71
2023/08/13 07:06:14;;;;;;;10.05;2.78;;;20.10;87.80;;;;;;9181341;19;20562;-70
2023/08/13 07:09:24;;;;;;;13.80;2.50;;;20.20;86.90;;;;;;9181004;19;20006;-70
2023/08/13 07:12:32;;;;;;;19.30;3.53;;;20.40;87.50;;;;;;9180574;19;20018;-70
2023/08/13 07:15:37;;;;;;;11.45;2.13;;;20.60;86.60;;;;;;9179448;19;20044;-71
2023/08/13 07:18:45;;;;;;;15.23;2.65;;;20.80;86.70;;;;;;9179523;19;20018;-71
2023/08/13 07:21:50;;;;;;;13.55;2.70;;;21.00;86.40;;;;;;9178594;19;20010;-70
2023/08/13 07:25:00;;;;;;;5.85;2.00;;;21.30;86.70;;;;;;9183110;19;20026;-71
2023/08/13 07:28:06;;;;;;;7.85;1.92;;;21.40;86.30;;;;;;9182686;19;20015;-70
2023/08/13 07:31:14;;;;;;;9.90;2.13;;;21.60;86.10;;;;;;9182640;19;20015;-70
2023/08/13 07:34:20;;;;;;;11.38;2.25;;;21.80;86.10;;;;;;9171941;19;20026;-69
2023/08/13 07:37:27;;;;;;;12.23;3.03;;;22.00;86.00;;;;;;9175659;19;20027;-69
2023/08/13 07:40:36;;;;;;;9.73;1.95;;;22.20;85.20;;;;;;9176216;19;20339;-70
2023/08/13 07:43:44;;;;;;;8.27;1.85;;;22.20;85.00;;;;;;9174659;19;20017;-69
2023/08/13 07:46:50;;;;;;;14.98;2.47;;;22.50;85.10;;;;;;9175637;19;20046;-69
2023/08/13 07:49:58;;;;;;;10.50;1.50;;;22.60;85.00;;;;;;9175384;19;20018;-72
2023/08/13 07:53:04;;;;;;;8.45;2.00;;;22.70;84.40;;;;;;9175093;19;20014;-69
2023/08/13 07:56:14;;;;;;;9.80;2.30;;;22.80;84.70;;;;;;9170595;19;20018;-70
2023/08/13 07:59:19;;;;;;;6.60;1.63;;;22.90;84.20;;;;;;9174261;19;20018;-69
2023/08/13 08:02:27;;;;;;;4.40;1.10;;;23.00;84.20;;;;;;9172346;19;20018;-70
2023/08/13 08:05:32;;;;;;;7.40;1.58;;;23.10;83.50;;;;;;9174104;19;20490;-70
2023/08/13 08:08:40;;;;;;;10.40;1.95;;;23.40;83.70;;;;;;9173475;19;20018;-70
2023/08/13 08:11:47;;;;;;;8.73;2.35;;;23.40;83.50;;;;;;9175168;19;20017;-69
2023/08/13 08:14:55;;;;;;;7.85;1.42;;;23.60;82.90;;;;;;9173668;19;20046;-70
2023/08/13 08:18:00;;;;;;;11.98;1.38;;;23.90;82.90;;;;;;9173943;19;20034;-70
2023/08/13 08:21:07;;;;;;;9.80;1.50;;;23.90;82.80;;;;;;9173114;19;20038;-69
2023/08/13 08:24:13;;;;;;;5.20;1.17;;;24.10;82.40;;;;;;9179980;19;20082;-70
2023/08/13 08:27:23;;;;;;;4.35;1.33;;;24.10;81.70;;;;;;9179607;19;20641;-70
2023/08/13 08:30:28;;;;;;;4.38;1.30;;;24.30;81.40;;;;;;9179532;19;20376;-71
2023/08/13 08:33:36;;;;;;;5.68;1.00;;;24.30;81.50;;;;;;9180067;19;20015;-70
2023/08/13 08:36:41;;;;;;;3.35;1.05;;;24.50;81.30;;;;;;9178817;19;20014;-69
2023/08/13 08:39:51;;;;;;;7.38;1.60;;;24.60;81.00;;;;;;9176730;19;20073;-68
2023/08/13 08:42:59;;;;;;;4.88;1.55;;;24.80;80.50;;;;;;9177495;19;20010;-69
2023/08/13 08:46:09;;;;;;;7.38;1.20;;;24.80;80.40;;;;;;9178690;19;20041;-70
2023/08/13 08:49:15;;;;;;;8.98;1.60;;;25.00;80.30;;;;;;9177218;19;20050;-70
2023/08/13 08:52:22;;;;;;;5.93;1.50;;;25.00;79.60;;;;;;9177374;19;20018;-68
2023/08/13 08:55:28;;;;;;;3.83;1.55;;;25.20;80.00;;;;;;9178806;19;20503;-69
2023/08/13 08:58:38;;;;;;;5.30;1.30;;;25.30;79.70;;;;;;9173842;19;20491;-70
2023/08/13 09:01:43;;;;;;;4.10;1.10;;;25.30;79.10;;;;;;9177548;19;20014;-69
2023/08/13 09:04:50;;;;;;;5.90;1.10;;;25.50;79.50;;;;;;9177418;19;20021;-70
2023/08/13 09:07:56;;;;;;;6.38;1.48;;;25.60;79.20;;;;;;9171342;19;20040;-68
2023/08/13 09:11:03;;;;;;;4.95;1.42;;;25.60;78.90;;;;;;9170802;19;20019;-69
2023/08/13 09:14:12;;;;;;;4.20;1.17;;;25.70;78.40;;;;;;9172512;19;20638;-70
2023/08/13 09:17:19;;;;;;;6.28;1.25;;;25.90;77.80;;;;;;9172035;19;20018;-69
2023/08/13 09:20:24;;;;;;;3.75;1.15;;;25.90;77.30;;;;;;9171242;19;20018;-69
2023/08/13 09:23:32;;;;;;;5.40;1.05;;;26.10;77.00;;;;;;9164798;19;20021;-69
2023/08/13 09:26:38;;;;;;;3.75;1.02;;;26.20;76.40;;;;;;9163141;19;20807;-69
2023/08/13 09:29:55;;;;;;;3.10;0.82;;;26.40;77.60;;;;;;9166923;19;20013;-69
2023/08/13 09:33:02;;;;;;;10.30;1.38;;;26.30;76.70;;;;;;9165380;19;20018;-70
2023/08/13 09:36:11;;;;;;;3.83;1.27;;;26.40;77.10;;;;;;9170881;19;20010;-69
2023/08/13 09:39:20;;;;;;;2.97;0.93;;;26.40;76.80;;;;;;9166329;19;20119;-70
2023/08/13 09:42:27;;;;;;;7.85;1.33;;;26.50;76.10;;;;;;9166278;19;20022;-70
2023/08/13 09:45:38;;;;;;;4.60;1.30;;;26.50;76.40;;;;;;9169038;19;20035;-68
2023/08/13 09:48:46;;;;;;;10.85;1.88;;;26.60;76.30;;;;;;9168410;19;20049;-68
2023/08/13 09:51:53;;;;;;;8.98;1.63;;;26.60;75.80;;;;;;9161998;19;20026;-68
2023/08/13 09:55:09;;;;;;;9.05;2.15;;;26.80;76.50;;;;;;9164770;19;20017;-68
2023/08/13 09:58:17;;;;;;;12.30;2.13;;;26.70;75.50;;;;;;9161414;19;20019;-67
2023/08/13 10:01:27;;;;;;;5.88;1.38;;;26.80;75.50;;;;;;9168661;19;20025;-68
2023/08/13 10:04:33;;;;;;;8.73;1.35;;;27.00;74.20;;;;;;9169366;19;20022;-70
2023/08/13 10:07:42;;;;;;;11.95;1.92;;;27.10;75.40;;;;;;9179958;19;20014;-69
2023/08/13 10:10:47;;;;;;;10.32;2.10;;;27.10;75.30;;;;;;9176785;19;20025;-67
2023/08/13 10:13:55;;;;;;;7.15;1.92;;;27.30;74.90;;;;;;9175717;19;20015;-66
2023/08/13 10:17:06;;;;;;;6.93;1.70;;;27.30;75.00;;;;;;9177152;19;20739;-68
2023/08/13 10:20:14;;;;;;;6.72;1.80;;;27.40;74.40;;;;;;9177482;19;20023;-68
2023/08/13 10:23:19;;;;;;;8.88;1.63;;;27.50;74.10;;;;;;9170165;19;20022;-67
2023/08/13 10:26:27;;;;;;;9.35;1.55;;;27.60;74.40;;;;;;9172033;19;20014;-66
2023/08/13 10:29:38;;;;;;;6.97;1.92;;;27.60;74.40;;;;;;9173406;19;20756;-67
2023/08/13 10:33:00;;;;;;;12.38;2.45;;;27.60;74.70;;;;;;9176675;19;20021;-68
2023/08/13 10:36:12;;;;;;;5.38;1.23;;;27.60;74.50;;;;;;9178503;19;20022;-68
2023/08/13 10:39:36;;;;;;;11.93;1.85;;;27.70;74.60;;;;;;9175189;19;20029;-67
2023/08/13 10:42:52;;;;;;;8.52;1.83;;;27.70;73.00;;;;;;9175985;19;20081;-69
2023/08/13 10:46:00;;;;;;;10.60;2.08;;;27.50;73.00;;;;;;9173660;19;20010;-69
2023/08/13 10:49:08;;;;;;;10.02;1.95;;;27.50;73.90;;;;;;9175096;19;20035;-69
2023/08/13 10:52:16;;;;;;;6.03;1.35;;;27.50;73.80;;;;;;9182870;19;20014;-68
2023/08/13 10:55:25;;;;;;;6.13;1.58;;;27.70;74.30;;;;;;9179330;19;20011;-68
2023/08/13 10:58:33;;;;;;;7.07;2.05;;;27.40;74.10;;;;;;9168502;19;20018;-70
2023/08/13 11:02:11;;;;;;;9.60;2.03;;;27.00;74.10;;;;;;9173773;19;20028;-68
2023/08/13 11:05:23;;;;;;;6.45;1.77;;;27.40;72.70;;;;;;9179144;19;20028;-68
2023/08/13 11:08:28;;;;;;;6.45;1.83;;;27.40;73.40;;;;;;9164292;19;20015;-67
2023/08/13 11:11:53;;;;;;;6.85;1.60;;;27.50;73.50;;;;;;9173188;19;20025;-68
2023/08/13 11:15:01;;;;;;;8.20;1.92;;;27.40;73.90;;;;;;9167902;19;20018;-68
2023/08/13 11:18:09;;;;;;;8.88;2.42;;;27.40;73.70;;;;;;9173628;19;20034;-69
2023/08/13 11:21:16;;;;;;;6.13;2.05;;;27.30;74.10;;;;;;9172452;19;20482;-67
2023/08/13 11:24:24;;;;;;;10.57;2.20;;;27.40;73.50;;;;;;9167243;19;20796;-69
2023/08/13 11:27:31;;;;;;;9.73;1.70;;;27.30;73.60;;;;;;9169564;19;20099;-68
2023/08/13 11:30:41;;;;;;;6.72;2.08;;;27.30;73.90;;;;;;9172652;19;20026;-68
2023/08/13 11:33:50;;;;;;;8.52;2.00;;;27.30;72.70;;;;;;9170794;19;20019;-68
2023/08/13 11:37:01;;;;;;;9.02;1.83;;;27.20;73.90;;;;;;9171525;19;20357;-70
2023/08/13 11:40:10;;;;;;;7.97;1.55;;;27.20;72.90;;;;;;9170153;19;20025;-69
2023/08/13 11:43:19;;;;;;;10.50;1.65;;;27.20;72.40;;;;;;9172134;19;20018;-69
2023/08/13 11:46:25;;;;;;;8.70;1.60;;;27.00;73.00;;;;;;9173607;19;20015;-62
2023/08/13 11:49:33;;;;;;;11.73;1.67;;;27.10;72.10;;;;;;9163062;19;20022;-66
2023/08/13 11:52:41;;;;;;;9.90;1.70;;;27.10;73.40;;;;;;9167799;19;20023;-67
2023/08/13 11:55:50;;;;;;;8.95;2.03;;;27.00;73.20;;;;;;9169094;19;20006;-67
2023/08/13 11:58:55;;;;;;;5.38;1.50;;;27.00;73.00;;;;;;9164406;19;21830;-64
2023/08/13 12:02:03;;;;;;;11.13;1.70;;;27.00;73.40;;;;;;9172898;19;20428;-66
2023/08/13 12:05:14;;;;;;;10.02;1.77;;;27.00;73.30;;;;;;9170933;19;20828;-65
2023/08/13 12:08:29;;;;;;;12.20;2.00;;;27.00;73.20;;;;;;9170066;19;20462;-67
2023/08/13 12:11:34;;;;;;;6.88;1.77;;;27.00;72.80;;;;;;9170401;19;20025;-67
2023/08/13 12:14:46;;;;;;;8.75;1.50;;;27.00;72.70;;;;;;9165394;19;20010;-67
2023/08/13 12:17:52;;;;;;;8.43;1.77;;;27.00;72.30;;;;;;9165897;19;20759;-68
2023/08/13 12:20:59;;;;;;;8.32;1.80;;;27.00;72.00;;;;;;9164184;19;20010;-71
2023/08/13 12:24:09;;;;;;;5.05;1.60;;;26.90;72.70;;;;;;9162206;19;20015;-70
2023/08/13 12:27:16;;;;;;;5.65;1.45;;;27.00;72.70;;;;;;9160717;19;20015;-68
2023/08/13 12:30:22;;;;;;;10.18;1.90;;;27.10;73.10;;;;;;9163865;19;20776;-69
2023/08/13 12:33:29;;;;;;;5.97;1.45;;;27.00;73.40;;;;;;9168696;19;20014;-69
2023/08/13 12:36:35;;;;;;;9.55;2.00;;;27.00;73.20;;;;;;9171030;19;20026;-69
2023/08/13 12:39:45;;;;;;;7.93;1.70;;;27.00;73.00;;;;;;9170728;19;20018;-69
2023/08/13 12:42:50;;;;;;;14.07;2.10;;;27.00;72.80;;;;;;9166903;19;20022;-65
2023/08/13 12:45:58;;;;;;;4.97;1.33;;;27.10;72.20;;;;;;9165282;19;20110;-67
2023/08/13 12:49:03;;;;;;;6.93;1.60;;;27.10;72.80;;;;;;9167258;19;20014;-65
2023/08/13 12:52:10;;;;;;;5.82;1.70;;;27.10;72.40;;;;;;9164335;19;20019;-69
2023/08/13 12:55:18;;;;;;;7.88;1.88;;;27.20;72.60;;;;;;9169602;19;20018;-70
2023/08/13 12:58:26;;;;;;;7.03;2.17;;;27.10;71.80;;;;;;9165535;19;20790;-70
2023/08/13 13:01:32;;;;;;;9.27;2.53;;;27.30;72.00;;;;;;9167967;19;20022;-71
2023/08/13 13:04:41;;;;;;;12.27;2.70;;;27.30;72.10;;;;;;9169036;19;20610;-75
2023/08/13 13:07:47;;;;;;;9.07;2.40;;;27.30;72.10;;;;;;9169942;19;20019;-69
2023/08/13 13:10:57;;;;;;;9.00;1.85;;;27.40;71.90;;;;;;9165524;19;20109;-71
2023/08/13 13:14:02;;;;;;;5.82;1.65;;;27.40;71.70;;;;;;9166023;19;20022;-70
2023/08/13 13:17:10;;;;;;;8.70;2.03;;;27.40;72.50;;;;;;9167339;19;20021;-69
2023/08/13 13:20:18;;;;;;;8.32;1.60;;;27.50;72.70;;;;;;9166597;19;20010;-70
2023/08/13 13:23:25;;;;;;;5.85;1.55;;;27.30;72.70;;;;;;9163597;19;20015;-70
2023/08/13 13:26:33;;;;;;;8.38;1.95;;;27.40;71.60;;;;;;9163480;19;20389;-69
2023/08/13 13:29:40;;;;;;;7.07;1.70;;;27.20;72.10;;;;;;9165290;19;20345;-68
2023/08/13 13:32:46;;;;;;;7.65;1.77;;;27.30;71.90;;;;;;9163869;19;20361;-69
2023/08/13 13:35:53;;;;;;;7.20;1.88;;;27.20;71.90;;;;;;9162738;19;20023;-69
2023/08/13 13:38:59;;;;;;;10.60;1.88;;;27.00;71.70;;;;;;9179682;19;20025;-69
2023/08/13 13:42:11;;;;;;;7.93;1.63;;;27.20;71.10;;;;;;9185051;19;20007;-68
2023/08/13 13:45:17;;;;;;;6.30;1.77;;;26.90;71.30;;;;;;9182207;19;20048;-69
2023/08/13 13:48:25;;;;;;;10.32;2.03;;;26.80;71.80;;;;;;9182992;19;20376;-68
2023/08/13 13:51:30;;;;;;;6.80;1.77;;;26.70;71.60;;;;;;9183811;19;20029;-69
2023/08/13 13:54:38;;;;;;;6.65;1.70;;;26.70;71.60;;;;;;9181587;19;20010;-68
2023/08/13 13:57:46;;;;;;;11.00;2.30;;;26.60;71.20;;;;;;9178162;19;20037;-74
2023/08/13 14:00:54;;;;;;;11.10;2.38;;;26.50;71.50;;;;;;9184194;19;20026;-67
2023/08/13 14:03:59;;;;;;;11.00;2.67;;;26.40;70.80;;;;;;9184358;19;20052;-67
2023/08/13 14:07:07;;;;;;;9.57;2.70;;;26.40;71.00;;;;;;9184721;19;20052;-67
2023/08/13 14:10:13;;;;;;;7.35;1.60;;;26.30;72.10;;;;;;9184502;19;20618;-68
2023/08/13 14:13:23;;;;;;;8.80;2.13;;;26.30;71.80;;;;;;9181907;19;20472;-68
2023/08/13 14:16:28;;;;;;;5.82;1.42;;;26.10;71.00;;;;;;9185807;19;20011;-68
2023/08/13 14:19:35;;;;;;;5.82;1.52;;;26.10;71.70;;;;;;9184007;19;20022;-68
2023/08/13 14:22:41;;;;;;;7.43;1.58;;;26.20;71.90;;;;;;9177965;19;20031;-66
2023/08/13 14:25:48;;;;;;;6.25;1.92;;;26.10;72.10;;;;;;9181277;19;20011;-66
2023/08/13 14:28:57;;;;;;;7.43;2.10;;;26.10;72.30;;;;;;9184282;19;20051;-66
2023/08/13 14:32:04;;;;;;;6.63;1.92;;;26.00;72.40;;;;;;9180706;19;20025;-66
2023/08/13 14:35:10;;;;;;;9.00;2.05;;;26.00;71.40;;;;;;9183106;19;20022;-67
2023/08/13 14:38:18;;;;;;;5.35;1.50;;;25.90;71.10;;;;;;9182491;19;20018;-65
2023/08/13 14:41:23;;;;;;;7.25;1.50;;;26.00;72.00;;;;;;9177498;19;20018;-67
2023/08/13 14:44:33;;;;;;;8.82;2.38;;;26.00;71.50;;;;;;9179492;19;20014;-66
2023/08/13 14:47:38;;;;;;;8.23;2.30;;;26.00;71.20;;;;;;9180436;19;20022;-67
2023/08/13 14:50:46;;;;;;;8.23;2.08;;;26.00;71.40;;;;;;9172695;19;20019;-68
2023/08/13 14:53:51;;;;;;;6.78;1.90;;;26.00;71.50;;;;;;9172306;19;20026;-66
2023/08/13 14:56:58;;;;;;;4.15;1.52;;;26.00;71.50;;;;;;9163516;19;20026;-66
2023/08/13 15:00:08;;;;;;;12.02;2.83;;;26.00;72.00;;;;;;9170021;19;20017;-66
2023/08/13 15:03:16;;;;;;;9.30;1.70;;;26.10;71.60;;;;;;9172140;19;20018;-65
2023/08/13 15:06:21;;;;;;;6.88;1.85;;;26.00;72.20;;;;;;9170464;19;20018;-67
2023/08/13 15:09:28;;;;;;;11.10;2.40;;;26.00;71.90;;;;;;9172301;19;20003;-67
2023/08/13 15:12:34;;;;;;;6.78;1.92;;;26.00;72.00;;;;;;9175305;19;20017;-68
2023/08/13 15:15:51;;;;;;;5.93;1.83;;;26.10;72.00;;;;;;9169432;19;20018;-67
2023/08/13 15:19:00;;;;;;;8.82;2.30;;;26.10;72.20;;;;;;9169284;19;20022;-68
2023/08/13 15:22:07;;;;;;;9.90;1.98;;;26.10;72.50;;;;;;9172425;19;20010;-69
2023/08/13 15:25:12;;;;;;;10.88;2.20;;;26.20;72.00;;;;;;9169874;19;20063;-68
2023/08/13 15:28:20;;;;;;;7.57;1.95;;;26.10;72.10;;;;;;9172026;19;20011;-69
2023/08/13 15:31:28;;;;;;;14.32;2.13;;;26.20;71.80;;;;;;9170424;19;20025;-68
2023/08/13 15:34:35;;;;;;;11.02;2.55;;;26.20;71.70;;;;;;9166833;19;20017;-68
2023/08/13 15:37:41;;;;;;;10.35;2.80;;;26.20;71.90;;;;;;9164706;19;20374;-68
2023/08/13 15:40:48;;;;;;;9.45;2.05;;;26.30;72.00;;;;;;9164303;19;20015;-69
2023/08/13 15:43:54;;;;;;;12.02;2.80;;;26.30;71.70;;;;;;9170416;19;20137;-66
2023/08/13 15:47:04;;;;;;;6.05;2.42;;;26.30;71.70;;;;;;9170901;19;20014;-68
2023/08/13 15:50:10;;;;;;;8.68;2.35;;;26.40;71.10;;;;;;9164809;19;20026;-68
2023/08/13 15:53:17;;;;;;;9.07;2.05;;;26.40;71.00;;;;;;9172397;19;20018;-69
2023/08/13 15:56:23;;;;;;;7.05;2.05;;;26.40;71.20;;;;;;9165451;19;20018;-69
2023/08/13 15:59:30;;;;;;;8.48;2.60;;;26.40;70.80;;;;;;9170540;19;20030;-69
2023/08/13 16:02:40;;;;;;;5.35;1.90;;;26.50;71.90;;;;;;9166217;19;20068;-69
2023/08/13 16:05:47;;;;;;;9.45;2.20;;;26.50;71.80;;;;;;9170515;19;20448;-70
2023/08/13 16:08:53;;;;;;;7.15;1.67;;;26.50;71.90;;;;;;9164986;19;20148;-69
2023/08/13 16:12:00;;;;;;;9.07;2.38;;;26.50;71.20;;;;;;9171341;19;20030;-69
2023/08/13 16:15:09;;;;;;;9.35;2.25;;;26.50;71.70;;;;;;9160348;19;20056;-69